sensor_id;sensor_type;location;lat;lon;timestamp;P1;durP1;ratioP1;P2;durP2;ratioP2
31746;SDS011;18319;48.974;8.462;2023-04-16T00:01:24;14.85;;;11.02;;
31746;SDS011;18319;48.974;8.462;2023-04-16T00:03:51;14.83;;;11.63;;
31746;SDS011;18319;48.974;8.462;2023-04-16T00:06:18;14.65;;;11.18;;
31746;SDS011;18319;48.974;8.462;2023-04-16T00:08:45;16.50;;;12.53;;
31746;SDS011;18319;48.974;8.462;2023-04-16T00:11:12;18.17;;;12.52;;
31746;SDS011;18319;48.974;8.462;2023-04-16T00:13:40;15.40;;;11.87;;
31746;SDS011;18319;48.974;8.462;2023-04-16T00:16:07;16.50;;;12.57;;
31746;SDS011;18319;48.974;8.462;2023-04-16T00:18:33;17.08;;;12.93;;
31746;SDS011;18319;48.974;8.462;2023-04-16T00:21:00;14.52;;;12.05;;
31746;SDS011;18319;48.974;8.462;2023-04-16T00:23:27;17.67;;;12.57;;
31746;SDS011;18319;48.974;8.462;2023-04-16T00:25:54;17.30;;;11.82;;
31746;SDS011;18319;48.974;8.462;2023-04-16T00:28:23;16.83;;;11.87;;
31746;SDS011;18319;48.974;8.462;2023-04-16T00:30:52;17.63;;;12.45;;
31746;SDS011;18319;48.974;8.462;2023-04-16T00:33:19;17.70;;;12.30;;
31746;SDS011;18319;48.974;8.462;2023-04-16T00:35:47;17.20;;;12.37;;
31746;SDS011;18319;48.974;8.462;2023-04-16T00:38:14;18.60;;;12.87;;
31746;SDS011;18319;48.974;8.462;2023-04-16T00:40:41;17.43;;;12.23;;
31746;SDS011;18319;48.974;8.462;2023-04-16T00:43:07;15.52;;;12.00;;
31746;SDS011;18319;48.974;8.462;2023-04-16T00:45:34;18.07;;;12.47;;
31746;SDS011;18319;48.974;8.462;2023-04-16T00:48:03;17.23;;;11.67;;
31746;SDS011;18319;48.974;8.462;2023-04-16T00:50:30;13.33;;;10.63;;
31746;SDS011;18319;48.974;8.462;2023-04-16T00:52:58;16.55;;;11.77;;
31746;SDS011;18319;48.974;8.462;2023-04-16T00:55:26;16.00;;;11.30;;
31746;SDS011;18319;48.974;8.462;2023-04-16T00:57:53;16.60;;;11.50;;
31746;SDS011;18319;48.974;8.462;2023-04-16T01:00:25;15.87;;;11.23;;
31746;SDS011;18319;48.974;8.462;2023-04-16T01:02:52;15.20;;;12.10;;
31746;SDS011;18319;48.974;8.462;2023-04-16T01:05:20;15.53;;;11.90;;
31746;SDS011;18319;48.974;8.462;2023-04-16T01:07:47;18.48;;;11.45;;
31746;SDS011;18319;48.974;8.462;2023-04-16T01:10:15;16.87;;;12.00;;
31746;SDS011;18319;48.974;8.462;2023-04-16T01:12:42;17.30;;;12.63;;
31746;SDS011;18319;48.974;8.462;2023-04-16T01:15:09;16.40;;;12.33;;
31746;SDS011;18319;48.974;8.462;2023-04-16T01:17:36;16.07;;;12.37;;
31746;SDS011;18319;48.974;8.462;2023-04-16T01:20:03;14.37;;;10.57;;
31746;SDS011;18319;48.974;8.462;2023-04-16T01:22:32;14.30;;;11.03;;
31746;SDS011;18319;48.974;8.462;2023-04-16T01:24:59;14.73;;;10.70;;
31746;SDS011;18319;48.974;8.462;2023-04-16T01:27:26;15.85;;;10.75;;
31746;SDS011;18319;48.974;8.462;2023-04-16T01:29:53;16.75;;;12.30;;
31746;SDS011;18319;48.974;8.462;2023-04-16T01:32:20;16.13;;;11.43;;
31746;SDS011;18319;48.974;8.462;2023-04-16T01:34:47;14.38;;;11.15;;
31746;SDS011;18319;48.974;8.462;2023-04-16T01:37:14;15.23;;;11.95;;
31746;SDS011;18319;48.974;8.462;2023-04-16T01:39:42;16.70;;;12.47;;
31746;SDS011;18319;48.974;8.462;2023-04-16T01:42:09;19.23;;;13.13;;
31746;SDS011;18319;48.974;8.462;2023-04-16T01:44:36;18.13;;;12.20;;
31746;SDS011;18319;48.974;8.462;2023-04-16T01:47:02;19.77;;;13.30;;
31746;SDS011;18319;48.974;8.462;2023-04-16T01:49:29;21.47;;;14.77;;
31746;SDS011;18319;48.974;8.462;2023-04-16T01:51:56;17.00;;;12.45;;
31746;SDS011;18319;48.974;8.462;2023-04-16T01:54:23;18.00;;;11.80;;
31746;SDS011;18319;48.974;8.462;2023-04-16T01:56:51;18.13;;;12.60;;
31746;SDS011;18319;48.974;8.462;2023-04-16T01:59:18;17.52;;;13.00;;
31746;SDS011;18319;48.974;8.462;2023-04-16T02:01:44;18.80;;;12.50;;
31746;SDS011;18319;48.974;8.462;2023-04-16T02:04:11;16.63;;;12.60;;
31746;SDS011;18319;48.974;8.462;2023-04-16T02:06:38;18.50;;;13.23;;
31746;SDS011;18319;48.974;8.462;2023-04-16T02:09:05;18.43;;;12.67;;
31746;SDS011;18319;48.974;8.462;2023-04-16T02:11:32;18.87;;;13.07;;
31746;SDS011;18319;48.974;8.462;2023-04-16T02:14:00;17.60;;;13.02;;
31746;SDS011;18319;48.974;8.462;2023-04-16T02:16:27;16.77;;;12.47;;
31746;SDS011;18319;48.974;8.462;2023-04-16T02:18:54;18.63;;;13.40;;
31746;SDS011;18319;48.974;8.462;2023-04-16T02:21:21;21.27;;;13.68;;
31746;SDS011;18319;48.974;8.462;2023-04-16T02:23:47;21.00;;;13.85;;
31746;SDS011;18319;48.974;8.462;2023-04-16T02:26:15;20.27;;;13.25;;
31746;SDS011;18319;48.974;8.462;2023-04-16T02:28:42;17.83;;;12.77;;
31746;SDS011;18319;48.974;8.462;2023-04-16T02:31:10;18.50;;;12.98;;
31746;SDS011;18319;48.974;8.462;2023-04-16T02:33:37;18.67;;;12.80;;
31746;SDS011;18319;48.974;8.462;2023-04-16T02:36:04;17.40;;;12.57;;
31746;SDS011;18319;48.974;8.462;2023-04-16T02:38:31;19.40;;;13.27;;
31746;SDS011;18319;48.974;8.462;2023-04-16T02:40:58;18.93;;;13.47;;
31746;SDS011;18319;48.974;8.462;2023-04-16T02:43:25;16.52;;;12.10;;
31746;SDS011;18319;48.974;8.462;2023-04-16T02:45:51;14.83;;;11.30;;
31746;SDS011;18319;48.974;8.462;2023-04-16T02:48:19;17.25;;;12.55;;
31746;SDS011;18319;48.974;8.462;2023-04-16T02:50:46;17.88;;;12.30;;
31746;SDS011;18319;48.974;8.462;2023-04-16T02:53:13;19.40;;;12.50;;
31746;SDS011;18319;48.974;8.462;2023-04-16T02:55:39;17.27;;;12.77;;
31746;SDS011;18319;48.974;8.462;2023-04-16T02:58:06;16.50;;;12.43;;
31746;SDS011;18319;48.974;8.462;2023-04-16T03:00:33;17.60;;;12.50;;
31746;SDS011;18319;48.974;8.462;2023-04-16T03:03:00;18.77;;;14.37;;
31746;SDS011;18319;48.974;8.462;2023-04-16T03:05:28;18.40;;;13.87;;
31746;SDS011;18319;48.974;8.462;2023-04-16T03:07:54;17.90;;;13.60;;
31746;SDS011;18319;48.974;8.462;2023-04-16T03:10:21;17.23;;;13.00;;
31746;SDS011;18319;48.974;8.462;2023-04-16T03:12:49;19.17;;;14.07;;
31746;SDS011;18319;48.974;8.462;2023-04-16T03:15:15;19.10;;;13.40;;
31746;SDS011;18319;48.974;8.462;2023-04-16T03:17:42;19.15;;;13.75;;
31746;SDS011;18319;48.974;8.462;2023-04-16T03:20:09;17.92;;;13.10;;
31746;SDS011;18319;48.974;8.462;2023-04-16T03:22:38;19.63;;;13.18;;
31746;SDS011;18319;48.974;8.462;2023-04-16T03:25:05;16.67;;;13.33;;
31746;SDS011;18319;48.974;8.462;2023-04-16T03:27:32;16.45;;;12.45;;
31746;SDS011;18319;48.974;8.462;2023-04-16T03:29:59;17.27;;;12.57;;
31746;SDS011;18319;48.974;8.462;2023-04-16T03:32:25;19.13;;;14.27;;
31746;SDS011;18319;48.974;8.462;2023-04-16T03:34:52;18.80;;;14.00;;
31746;SDS011;18319;48.974;8.462;2023-04-16T03:37:19;17.27;;;13.57;;
31746;SDS011;18319;48.974;8.462;2023-04-16T03:39:48;19.42;;;13.20;;
31746;SDS011;18319;48.974;8.462;2023-04-16T03:42:15;18.53;;;12.77;;
31746;SDS011;18319;48.974;8.462;2023-04-16T03:44:41;17.87;;;13.47;;
31746;SDS011;18319;48.974;8.462;2023-04-16T03:47:08;19.47;;;14.37;;
31746;SDS011;18319;48.974;8.462;2023-04-16T03:49:35;20.50;;;13.23;;
31746;SDS011;18319;48.974;8.462;2023-04-16T03:52:02;19.23;;;13.63;;
31746;SDS011;18319;48.974;8.462;2023-04-16T03:54:29;17.53;;;13.23;;
31746;SDS011;18319;48.974;8.462;2023-04-16T03:56:57;20.53;;;14.60;;
31746;SDS011;18319;48.974;8.462;2023-04-16T03:59:23;20.88;;;15.43;;
31746;SDS011;18319;48.974;8.462;2023-04-16T04:01:50;17.27;;;13.17;;
31746;SDS011;18319;48.974;8.462;2023-04-16T04:04:17;18.40;;;13.53;;
31746;SDS011;18319;48.974;8.462;2023-04-16T04:06:44;19.50;;;13.73;;
31746;SDS011;18319;48.974;8.462;2023-04-16T04:09:11;20.00;;;13.83;;
31746;SDS011;18319;48.974;8.462;2023-04-16T04:11:38;18.55;;;13.77;;
31746;SDS011;18319;48.974;8.462;2023-04-16T04:14:06;18.20;;;13.33;;
31746;SDS011;18319;48.974;8.462;2023-04-16T04:16:33;18.07;;;11.77;;
31746;SDS011;18319;48.974;8.462;2023-04-16T04:18:59;19.58;;;13.43;;
31746;SDS011;18319;48.974;8.462;2023-04-16T04:21:27;16.50;;;12.67;;
31746;SDS011;18319;48.974;8.462;2023-04-16T04:23:55;20.92;;;13.38;;
31746;SDS011;18319;48.974;8.462;2023-04-16T04:26:22;15.87;;;12.40;;
31746;SDS011;18319;48.974;8.462;2023-04-16T04:28:49;19.90;;;12.47;;
31746;SDS011;18319;48.974;8.462;2023-04-16T04:31:17;17.53;;;12.63;;
31746;SDS011;18319;48.974;8.462;2023-04-16T04:33:44;18.02;;;13.15;;
31746;SDS011;18319;48.974;8.462;2023-04-16T04:36:10;15.60;;;11.77;;
31746;SDS011;18319;48.974;8.462;2023-04-16T04:38:37;19.33;;;12.83;;
31746;SDS011;18319;48.974;8.462;2023-04-16T04:41:04;16.88;;;11.50;;
31746;SDS011;18319;48.974;8.462;2023-04-16T04:43:31;15.60;;;12.07;;
31746;SDS011;18319;48.974;8.462;2023-04-16T04:45:57;16.13;;;11.70;;
31746;SDS011;18319;48.974;8.462;2023-04-16T04:48:26;17.55;;;12.57;;
31746;SDS011;18319;48.974;8.462;2023-04-16T04:50:53;21.52;;;12.52;;
31746;SDS011;18319;48.974;8.462;2023-04-16T04:53:19;19.38;;;11.32;;
31746;SDS011;18319;48.974;8.462;2023-04-16T04:55:46;18.48;;;12.57;;
31746;SDS011;18319;48.974;8.462;2023-04-16T04:58:13;16.92;;;12.45;;
31746;SDS011;18319;48.974;8.462;2023-04-16T05:00:40;17.98;;;12.15;;
31746;SDS011;18319;48.974;8.462;2023-04-16T05:03:09;20.20;;;13.23;;
31746;SDS011;18319;48.974;8.462;2023-04-16T05:05:38;15.83;;;11.37;;
31746;SDS011;18319;48.974;8.462;2023-04-16T05:08:05;19.75;;;13.00;;
31746;SDS011;18319;48.974;8.462;2023-04-16T05:10:32;19.20;;;13.10;;
31746;SDS011;18319;48.974;8.462;2023-04-16T05:12:58;14.40;;;11.77;;
31746;SDS011;18319;48.974;8.462;2023-04-16T05:15:25;17.88;;;11.52;;
31746;SDS011;18319;48.974;8.462;2023-04-16T05:17:52;22.27;;;13.73;;
31746;SDS011;18319;48.974;8.462;2023-04-16T05:20:20;17.73;;;12.80;;
31746;SDS011;18319;48.974;8.462;2023-04-16T05:22:49;17.60;;;12.68;;
31746;SDS011;18319;48.974;8.462;2023-04-16T05:25:15;19.27;;;12.02;;
31746;SDS011;18319;48.974;8.462;2023-04-16T05:27:42;21.70;;;12.77;;
31746;SDS011;18319;48.974;8.462;2023-04-16T05:30:09;22.23;;;12.27;;
31746;SDS011;18319;48.974;8.462;2023-04-16T05:32:37;17.73;;;11.97;;
31746;SDS011;18319;48.974;8.462;2023-04-16T05:35:05;18.43;;;12.30;;
31746;SDS011;18319;48.974;8.462;2023-04-16T05:37:32;18.50;;;12.43;;
31746;SDS011;18319;48.974;8.462;2023-04-16T05:40:00;17.70;;;12.23;;
31746;SDS011;18319;48.974;8.462;2023-04-16T05:42:27;18.83;;;12.02;;
31746;SDS011;18319;48.974;8.462;2023-04-16T05:44:54;20.13;;;11.20;;
31746;SDS011;18319;48.974;8.462;2023-04-16T05:47:20;14.52;;;11.77;;
31746;SDS011;18319;48.974;8.462;2023-04-16T05:49:47;13.60;;;10.90;;
31746;SDS011;18319;48.974;8.462;2023-04-16T05:52:14;16.80;;;11.38;;
31746;SDS011;18319;48.974;8.462;2023-04-16T05:54:40;16.10;;;10.82;;
31746;SDS011;18319;48.974;8.462;2023-04-16T05:57:08;15.38;;;11.25;;
31746;SDS011;18319;48.974;8.462;2023-04-16T05:59:35;14.55;;;11.15;;
31746;SDS011;18319;48.974;8.462;2023-04-16T06:02:02;15.70;;;10.17;;
31746;SDS011;18319;48.974;8.462;2023-04-16T06:04:29;14.27;;;10.45;;
31746;SDS011;18319;48.974;8.462;2023-04-16T06:06:56;12.87;;;10.20;;
31746;SDS011;18319;48.974;8.462;2023-04-16T06:09:22;14.93;;;9.15;;
31746;SDS011;18319;48.974;8.462;2023-04-16T06:11:49;13.43;;;10.13;;
31746;SDS011;18319;48.974;8.462;2023-04-16T06:14:17;13.10;;;9.13;;
31746;SDS011;18319;48.974;8.462;2023-04-16T06:16:44;12.18;;;9.60;;
31746;SDS011;18319;48.974;8.462;2023-04-16T06:19:11;12.47;;;9.27;;
31746;SDS011;18319;48.974;8.462;2023-04-16T06:21:38;14.50;;;9.82;;
31746;SDS011;18319;48.974;8.462;2023-04-16T06:24:05;13.00;;;9.10;;
31746;SDS011;18319;48.974;8.462;2023-04-16T06:26:31;12.13;;;9.35;;
31746;SDS011;18319;48.974;8.462;2023-04-16T06:28:58;12.63;;;9.48;;
31746;SDS011;18319;48.974;8.462;2023-04-16T06:31:27;19.37;;;9.97;;
31746;SDS011;18319;48.974;8.462;2023-04-16T06:33:54;14.33;;;9.13;;
31746;SDS011;18319;48.974;8.462;2023-04-16T06:36:21;18.03;;;10.20;;
31746;SDS011;18319;48.974;8.462;2023-04-16T06:38:48;13.70;;;8.93;;
31746;SDS011;18319;48.974;8.462;2023-04-16T06:41:15;11.82;;;9.07;;
31746;SDS011;18319;48.974;8.462;2023-04-16T06:43:41;12.83;;;9.27;;
31746;SDS011;18319;48.974;8.462;2023-04-16T06:46:09;14.63;;;9.52;;
31746;SDS011;18319;48.974;8.462;2023-04-16T06:48:37;16.90;;;9.37;;
31746;SDS011;18319;48.974;8.462;2023-04-16T06:51:04;13.18;;;9.32;;
31746;SDS011;18319;48.974;8.462;2023-04-16T06:53:31;13.23;;;8.47;;
31746;SDS011;18319;48.974;8.462;2023-04-16T06:55:58;15.55;;;9.05;;
31746;SDS011;18319;48.974;8.462;2023-04-16T06:58:24;11.05;;;9.00;;
31746;SDS011;18319;48.974;8.462;2023-04-16T07:00:51;15.05;;;8.80;;
31746;SDS011;18319;48.974;8.462;2023-04-16T07:03:18;18.92;;;8.93;;
31746;SDS011;18319;48.974;8.462;2023-04-16T07:05:46;11.27;;;8.45;;
31746;SDS011;18319;48.974;8.462;2023-04-16T07:08:13;10.73;;;8.00;;
31746;SDS011;18319;48.974;8.462;2023-04-16T07:10:40;10.93;;;7.78;;
31746;SDS011;18319;48.974;8.462;2023-04-16T07:13:07;12.25;;;8.48;;
31746;SDS011;18319;48.974;8.462;2023-04-16T07:15:33;13.25;;;8.50;;
31746;SDS011;18319;48.974;8.462;2023-04-16T07:18:00;10.90;;;8.02;;
31746;SDS011;18319;48.974;8.462;2023-04-16T07:20:27;10.82;;;7.95;;
31746;SDS011;18319;48.974;8.462;2023-04-16T07:22:55;13.30;;;7.80;;
31746;SDS011;18319;48.974;8.462;2023-04-16T07:25:23;11.27;;;8.18;;
31746;SDS011;18319;48.974;8.462;2023-04-16T07:27:50;10.40;;;7.63;;
31746;SDS011;18319;48.974;8.462;2023-04-16T07:30:17;10.38;;;8.15;;
31746;SDS011;18319;48.974;8.462;2023-04-16T07:32:44;13.50;;;8.20;;
31746;SDS011;18319;48.974;8.462;2023-04-16T07:35:11;11.35;;;7.50;;
31746;SDS011;18319;48.974;8.462;2023-04-16T07:37:38;9.32;;;7.88;;
31746;SDS011;18319;48.974;8.462;2023-04-16T07:40:07;12.57;;;8.07;;
31746;SDS011;18319;48.974;8.462;2023-04-16T07:42:35;13.60;;;7.97;;
31746;SDS011;18319;48.974;8.462;2023-04-16T07:45:01;11.07;;;8.07;;
31746;SDS011;18319;48.974;8.462;2023-04-16T07:47:28;11.23;;;8.33;;
31746;SDS011;18319;48.974;8.462;2023-04-16T07:49:55;13.87;;;8.73;;
31746;SDS011;18319;48.974;8.462;2023-04-16T07:52:22;11.40;;;8.57;;
31746;SDS011;18319;48.974;8.462;2023-04-16T07:54:48;11.73;;;8.05;;
31746;SDS011;18319;48.974;8.462;2023-04-16T07:57:17;11.18;;;8.52;;
31746;SDS011;18319;48.974;8.462;2023-04-16T07:59:44;11.40;;;8.45;;
31746;SDS011;18319;48.974;8.462;2023-04-16T08:02:11;10.53;;;8.07;;
31746;SDS011;18319;48.974;8.462;2023-04-16T08:04:40;10.23;;;7.53;;
31746;SDS011;18319;48.974;8.462;2023-04-16T08:07:07;11.60;;;8.90;;
31746;SDS011;18319;48.974;8.462;2023-04-16T08:09:34;9.75;;;8.23;;
31746;SDS011;18319;48.974;8.462;2023-04-16T08:12:01;9.75;;;7.78;;
31746;SDS011;18319;48.974;8.462;2023-04-16T08:14:29;11.77;;;8.18;;
31746;SDS011;18319;48.974;8.462;2023-04-16T08:16:56;11.82;;;7.80;;
31746;SDS011;18319;48.974;8.462;2023-04-16T08:19:23;12.73;;;8.15;;
31746;SDS011;18319;48.974;8.462;2023-04-16T08:21:50;13.30;;;9.27;;
31746;SDS011;18319;48.974;8.462;2023-04-16T08:24:16;12.18;;;8.50;;
31746;SDS011;18319;48.974;8.462;2023-04-16T08:26:43;8.75;;;7.53;;
31746;SDS011;18319;48.974;8.462;2023-04-16T08:29:10;11.77;;;8.32;;
31746;SDS011;18319;48.974;8.462;2023-04-16T08:31:38;10.05;;;8.02;;
31746;SDS011;18319;48.974;8.462;2023-04-16T08:34:05;11.90;;;8.15;;
31746;SDS011;18319;48.974;8.462;2023-04-16T08:36:32;13.63;;;9.48;;
31746;SDS011;18319;48.974;8.462;2023-04-16T08:38:59;12.20;;;8.68;;
31746;SDS011;18319;48.974;8.462;2023-04-16T08:41:26;12.45;;;8.45;;
31746;SDS011;18319;48.974;8.462;2023-04-16T08:43:56;16.05;;;9.52;;
31746;SDS011;18319;48.974;8.462;2023-04-16T08:46:25;14.77;;;8.98;;
31746;SDS011;18319;48.974;8.462;2023-04-16T08:48:55;11.13;;;8.30;;
31746;SDS011;18319;48.974;8.462;2023-04-16T08:51:24;13.68;;;8.93;;
31746;SDS011;18319;48.974;8.462;2023-04-16T08:53:58;14.68;;;8.70;;
31746;SDS011;18319;48.974;8.462;2023-04-16T08:56:28;12.35;;;8.52;;
31746;SDS011;18319;48.974;8.462;2023-04-16T08:58:57;12.82;;;8.50;;
31746;SDS011;18319;48.974;8.462;2023-04-16T09:01:26;12.95;;;7.82;;
31746;SDS011;18319;48.974;8.462;2023-04-16T09:03:54;11.95;;;7.40;;
31746;SDS011;18319;48.974;8.462;2023-04-16T09:06:21;12.77;;;6.70;;
31746;SDS011;18319;48.974;8.462;2023-04-16T09:08:48;10.90;;;7.63;;
31746;SDS011;18319;48.974;8.462;2023-04-16T09:11:16;7.75;;;6.70;;
31746;SDS011;18319;48.974;8.462;2023-04-16T09:13:43;12.82;;;7.03;;
31746;SDS011;18319;48.974;8.462;2023-04-16T09:16:11;8.57;;;6.90;;
31746;SDS011;18319;48.974;8.462;2023-04-16T09:18:38;8.50;;;6.10;;
31746;SDS011;18319;48.974;8.462;2023-04-16T09:21:06;9.57;;;6.70;;
31746;SDS011;18319;48.974;8.462;2023-04-16T09:23:35;11.05;;;7.10;;
31746;SDS011;18319;48.974;8.462;2023-04-16T09:26:03;10.00;;;8.02;;
31746;SDS011;18319;48.974;8.462;2023-04-16T09:28:40;9.80;;;7.65;;
31746;SDS011;18319;48.974;8.462;2023-04-16T09:31:11;12.23;;;8.48;;
31746;SDS011;18319;48.974;8.462;2023-04-16T09:33:39;15.50;;;8.95;;
31746;SDS011;18319;48.974;8.462;2023-04-16T09:36:08;12.40;;;8.73;;
31746;SDS011;18319;48.974;8.462;2023-04-16T09:38:45;13.15;;;8.25;;
31746;SDS011;18319;48.974;8.462;2023-04-16T09:41:12;8.65;;;6.80;;
31746;SDS011;18319;48.974;8.462;2023-04-16T09:43:41;17.33;;;7.05;;
31746;SDS011;18319;48.974;8.462;2023-04-16T09:46:18;7.70;;;6.13;;
31746;SDS011;18319;48.974;8.462;2023-04-16T09:48:45;11.10;;;6.97;;
31746;SDS011;18319;48.974;8.462;2023-04-16T09:51:13;7.43;;;5.82;;
31746;SDS011;18319;48.974;8.462;2023-04-16T09:53:40;9.25;;;6.28;;
31746;SDS011;18319;48.974;8.462;2023-04-16T09:56:07;10.27;;;7.43;;
31746;SDS011;18319;48.974;8.462;2023-04-16T09:58:34;9.48;;;6.93;;
31746;SDS011;18319;48.974;8.462;2023-04-16T10:03:29;10.50;;;5.93;;
31746;SDS011;18319;48.974;8.462;2023-04-16T10:05:58;9.43;;;6.82;;
31746;SDS011;18319;48.974;8.462;2023-04-16T10:08:28;7.88;;;6.28;;
31746;SDS011;18319;48.974;8.462;2023-04-16T10:10:54;11.13;;;6.63;;
31746;SDS011;18319;48.974;8.462;2023-04-16T10:13:21;10.15;;;7.65;;
31746;SDS011;18319;48.974;8.462;2023-04-16T10:15:51;10.50;;;6.75;;
31746;SDS011;18319;48.974;8.462;2023-04-16T10:18:20;9.27;;;6.93;;
31746;SDS011;18319;48.974;8.462;2023-04-16T10:20:47;9.65;;;7.20;;
31746;SDS011;18319;48.974;8.462;2023-04-16T10:23:15;9.65;;;6.75;;
31746;SDS011;18319;48.974;8.462;2023-04-16T10:25:43;9.13;;;6.78;;
31746;SDS011;18319;48.974;8.462;2023-04-16T10:28:10;8.43;;;6.38;;
31746;SDS011;18319;48.974;8.462;2023-04-16T10:30:39;13.43;;;7.53;;
31746;SDS011;18319;48.974;8.462;2023-04-16T10:33:06;11.55;;;8.90;;
31746;SDS011;18319;48.974;8.462;2023-04-16T10:35:37;12.02;;;8.10;;
31746;SDS011;18319;48.974;8.462;2023-04-16T10:38:19;11.65;;;7.15;;
31746;SDS011;18319;48.974;8.462;2023-04-16T10:40:48;10.00;;;7.25;;
31746;SDS011;18319;48.974;8.462;2023-04-16T10:43:16;8.98;;;6.65;;
31746;SDS011;18319;48.974;8.462;2023-04-16T10:45:43;11.60;;;8.18;;
31746;SDS011;18319;48.974;8.462;2023-04-16T10:48:12;9.10;;;7.05;;
31746;SDS011;18319;48.974;8.462;2023-04-16T10:50:41;10.35;;;7.18;;
31746;SDS011;18319;48.974;8.462;2023-04-16T10:53:17;7.97;;;6.68;;
31746;SDS011;18319;48.974;8.462;2023-04-16T10:56:01;12.27;;;8.02;;
31746;SDS011;18319;48.974;8.462;2023-04-16T10:58:39;8.07;;;6.15;;
31746;SDS011;18319;48.974;8.462;2023-04-16T11:01:07;9.32;;;6.75;;
31746;SDS011;18319;48.974;8.462;2023-04-16T11:03:39;8.20;;;6.45;;
31746;SDS011;18319;48.974;8.462;2023-04-16T11:06:11;11.70;;;7.65;;
31746;SDS011;18319;48.974;8.462;2023-04-16T11:08:40;9.30;;;6.75;;
31746;SDS011;18319;48.974;8.462;2023-04-16T11:11:11;8.15;;;6.63;;
31746;SDS011;18319;48.974;8.462;2023-04-16T11:13:38;11.45;;;6.75;;
31746;SDS011;18319;48.974;8.462;2023-04-16T11:16:08;9.07;;;7.22;;
31746;SDS011;18319;48.974;8.462;2023-04-16T11:18:35;9.18;;;6.97;;
31746;SDS011;18319;48.974;8.462;2023-04-16T11:21:06;10.50;;;7.40;;
31746;SDS011;18319;48.974;8.462;2023-04-16T11:23:44;9.93;;;7.10;;
31746;SDS011;18319;48.974;8.462;2023-04-16T11:26:23;7.53;;;6.07;;
31746;SDS011;18319;48.974;8.462;2023-04-16T11:28:52;7.70;;;6.88;;
31746;SDS011;18319;48.974;8.462;2023-04-16T11:31:19;8.75;;;6.82;;
31746;SDS011;18319;48.974;8.462;2023-04-16T11:33:47;10.57;;;7.32;;
31746;SDS011;18319;48.974;8.462;2023-04-16T11:36:14;8.63;;;6.50;;
31746;SDS011;18319;48.974;8.462;2023-04-16T11:38:40;8.63;;;6.72;;
31746;SDS011;18319;48.974;8.462;2023-04-16T11:41:07;11.82;;;7.10;;
31746;SDS011;18319;48.974;8.462;2023-04-16T11:43:36;10.57;;;5.97;;
31746;SDS011;18319;48.974;8.462;2023-04-16T11:46:03;6.07;;;5.22;;
31746;SDS011;18319;48.974;8.462;2023-04-16T11:48:47;9.27;;;6.40;;
31746;SDS011;18319;48.974;8.462;2023-04-16T11:51:14;7.93;;;6.18;;
31746;SDS011;18319;48.974;8.462;2023-04-16T11:53:45;7.55;;;6.40;;
31746;SDS011;18319;48.974;8.462;2023-04-16T11:56:13;7.30;;;6.07;;
31746;SDS011;18319;48.974;8.462;2023-04-16T11:58:41;9.80;;;6.30;;
31746;SDS011;18319;48.974;8.462;2023-04-16T12:01:08;8.00;;;6.30;;
31746;SDS011;18319;48.974;8.462;2023-04-16T12:03:38;7.07;;;5.85;;
31746;SDS011;18319;48.974;8.462;2023-04-16T12:06:09;18.77;;;6.97;;
31746;SDS011;18319;48.974;8.462;2023-04-16T12:08:36;7.85;;;6.03;;
31746;SDS011;18319;48.974;8.462;2023-04-16T12:11:03;9.45;;;6.53;;
31746;SDS011;18319;48.974;8.462;2023-04-16T12:13:30;7.25;;;6.18;;
31746;SDS011;18319;48.974;8.462;2023-04-16T12:16:11;8.48;;;6.60;;
31746;SDS011;18319;48.974;8.462;2023-04-16T12:19:00;8.55;;;6.70;;
31746;SDS011;18319;48.974;8.462;2023-04-16T12:21:35;10.45;;;7.38;;
31746;SDS011;18319;48.974;8.462;2023-04-16T12:24:03;12.02;;;7.35;;
31746;SDS011;18319;48.974;8.462;2023-04-16T12:26:35;9.27;;;6.32;;
31746;SDS011;18319;48.974;8.462;2023-04-16T12:29:19;9.27;;;6.07;;
31746;SDS011;18319;48.974;8.462;2023-04-16T12:31:49;8.80;;;6.07;;
31746;SDS011;18319;48.974;8.462;2023-04-16T12:34:16;8.75;;;6.95;;
31746;SDS011;18319;48.974;8.462;2023-04-16T12:36:44;7.15;;;5.95;;
31746;SDS011;18319;48.974;8.462;2023-04-16T12:39:12;6.32;;;5.55;;
31746;SDS011;18319;48.974;8.462;2023-04-16T12:41:40;5.90;;;5.30;;
31746;SDS011;18319;48.974;8.462;2023-04-16T12:44:08;6.10;;;5.47;;
31746;SDS011;18319;48.974;8.462;2023-04-16T12:46:38;6.88;;;5.40;;
31746;SDS011;18319;48.974;8.462;2023-04-16T12:49:06;8.18;;;5.70;;
31746;SDS011;18319;48.974;8.462;2023-04-16T12:51:34;6.07;;;5.53;;
31746;SDS011;18319;48.974;8.462;2023-04-16T12:54:02;6.38;;;5.32;;
31746;SDS011;18319;48.974;8.462;2023-04-16T12:56:31;9.15;;;5.93;;
31746;SDS011;18319;48.974;8.462;2023-04-16T12:58:59;9.65;;;6.78;;
31746;SDS011;18319;48.974;8.462;2023-04-16T13:01:25;7.75;;;5.97;;
31746;SDS011;18319;48.974;8.462;2023-04-16T13:03:52;8.05;;;6.75;;
31746;SDS011;18319;48.974;8.462;2023-04-16T13:06:20;8.95;;;5.75;;
31746;SDS011;18319;48.974;8.462;2023-04-16T13:08:47;8.77;;;6.97;;
31746;SDS011;18319;48.974;8.462;2023-04-16T13:11:14;9.30;;;6.85;;
31746;SDS011;18319;48.974;8.462;2023-04-16T13:13:41;6.57;;;5.97;;
31746;SDS011;18319;48.974;8.462;2023-04-16T13:16:07;7.47;;;6.68;;
31746;SDS011;18319;48.974;8.462;2023-04-16T13:18:35;9.00;;;6.82;;
31746;SDS011;18319;48.974;8.462;2023-04-16T13:21:02;9.40;;;6.25;;
31746;SDS011;18319;48.974;8.462;2023-04-16T13:23:31;7.15;;;5.65;;
31746;SDS011;18319;48.974;8.462;2023-04-16T13:25:57;8.70;;;5.87;;
31746;SDS011;18319;48.974;8.462;2023-04-16T13:28:24;6.37;;;5.67;;
31746;SDS011;18319;48.974;8.462;2023-04-16T13:30:51;7.45;;;5.80;;
31746;SDS011;18319;48.974;8.462;2023-04-16T13:33:18;9.98;;;6.47;;
31746;SDS011;18319;48.974;8.462;2023-04-16T13:35:46;6.60;;;5.60;;
31746;SDS011;18319;48.974;8.462;2023-04-16T13:38:12;7.55;;;5.63;;
31746;SDS011;18319;48.974;8.462;2023-04-16T13:40:41;8.03;;;5.87;;
31746;SDS011;18319;48.974;8.462;2023-04-16T13:43:07;8.00;;;5.90;;
31746;SDS011;18319;48.974;8.462;2023-04-16T13:45:36;8.30;;;5.97;;
31746;SDS011;18319;48.974;8.462;2023-04-16T13:48:03;7.75;;;5.95;;
31746;SDS011;18319;48.974;8.462;2023-04-16T13:50:30;7.13;;;5.45;;
31746;SDS011;18319;48.974;8.462;2023-04-16T13:52:56;7.75;;;6.07;;
31746;SDS011;18319;48.974;8.462;2023-04-16T13:55:23;10.05;;;6.43;;
31746;SDS011;18319;48.974;8.462;2023-04-16T13:57:51;6.95;;;5.28;;
31746;SDS011;18319;48.974;8.462;2023-04-16T14:00:20;6.50;;;5.82;;
31746;SDS011;18319;48.974;8.462;2023-04-16T14:02:47;7.75;;;5.78;;
31746;SDS011;18319;48.974;8.462;2023-04-16T14:05:14;7.43;;;5.38;;
31746;SDS011;18319;48.974;8.462;2023-04-16T14:07:40;9.00;;;6.25;;
31746;SDS011;18319;48.974;8.462;2023-04-16T14:10:08;8.35;;;5.90;;
31746;SDS011;18319;48.974;8.462;2023-04-16T14:12:35;9.27;;;5.88;;
31746;SDS011;18319;48.974;8.462;2023-04-16T14:15:05;9.48;;;6.82;;
31746;SDS011;18319;48.974;8.462;2023-04-16T14:17:33;7.80;;;5.72;;
31746;SDS011;18319;48.974;8.462;2023-04-16T14:20:01;8.55;;;6.07;;
31746;SDS011;18319;48.974;8.462;2023-04-16T14:22:28;8.80;;;5.78;;
31746;SDS011;18319;48.974;8.462;2023-04-16T14:24:54;10.80;;;5.93;;
31746;SDS011;18319;48.974;8.462;2023-04-16T14:27:21;7.28;;;5.63;;
31746;SDS011;18319;48.974;8.462;2023-04-16T14:29:48;6.88;;;5.55;;
31746;SDS011;18319;48.974;8.462;2023-04-16T14:32:16;6.78;;;5.90;;
31746;SDS011;18319;48.974;8.462;2023-04-16T14:34:43;8.70;;;5.35;;
31746;SDS011;18319;48.974;8.462;2023-04-16T14:37:10;8.80;;;6.05;;
31746;SDS011;18319;48.974;8.462;2023-04-16T14:39:37;9.82;;;5.78;;